Time;durP1;ratioP1;P1;durP2;ratioP2;P2;SDS_P1;SDS_P2;PMS_P1;PMS_P2;Temp;Humidity;BMP_temperature;BMP_pressure;BME280_temperature;BME280_humidity;BME280_pressure;Samples;Min_cycle;Max_cycle;Signal;HPM_P1;HPM_P2
2023/03/06 00:00:44;;;;;;;15.67;7.60;;;1.70;99.90;;;;;;5003846;28;20452;-76
2023/03/06 00:03:11;;;;;;;16.80;7.67;;;1.70;99.90;;;;;;5019279;28;21003;-76
2023/03/06 00:05:38;;;;;;;13.83;7.50;;;1.70;99.90;;;;;;4992153;28;20583;-76
2023/03/06 00:08:06;;;;;;;11.90;7.77;;;1.70;99.90;;;;;;5064715;28;20443;-76
2023/03/06 00:10:35;;;;;;;15.07;8.07;;;1.70;99.90;;;;;;4995223;28;20468;-76
2023/03/06 00:13:04;;;;;;;10.97;7.23;;;1.70;99.90;;;;;;4996568;28;20516;-76
2023/03/06 00:15:31;;;;;;;15.33;7.87;;;1.70;99.90;;;;;;5012202;28;20486;-76
2023/03/06 00:17:58;;;;;;;13.47;8.87;;;1.70;99.90;;;;;;5020614;28;20464;-76
2023/03/06 00:20:26;;;;;;;13.77;9.30;;;1.70;99.90;;;;;;4992029;28;20456;-76
2023/03/06 00:22:55;;;;;;;14.43;8.33;;;1.70;99.90;;;;;;5004155;28;20443;-76
2023/03/06 00:25:22;;;;;;;13.60;7.90;;;1.70;99.90;;;;;;4995732;28;20493;-76
2023/03/06 00:27:51;;;;;;;16.27;9.57;;;1.60;99.90;;;;;;5022225;28;20492;-76
2023/03/06 00:30:20;;;;;;;10.57;8.00;;;1.60;99.90;;;;;;4994261;28;20451;-76
2023/03/06 00:32:47;;;;;;;11.37;7.73;;;1.60;99.90;;;;;;4999431;28;20519;-76
2023/03/06 00:35:15;;;;;;;12.87;9.13;;;1.50;99.90;;;;;;4994801;28;20849;-76
2023/03/06 00:37:43;;;;;;;12.43;7.60;;;1.60;99.90;;;;;;5023549;28;20492;-76
2023/03/06 00:40:13;;;;;;;16.20;8.27;;;1.50;99.90;;;;;;4994516;28;20467;-76
2023/03/06 00:42:40;;;;;;;16.50;9.07;;;1.50;99.90;;;;;;5014797;28;20520;-76
2023/03/06 00:45:10;;;;;;;13.10;6.93;;;1.50;99.90;;;;;;5002186;28;20587;-76
2023/03/06 00:47:37;;;;;;;14.73;8.30;;;1.50;99.90;;;;;;5027524;28;20455;-77
2023/03/06 00:50:04;;;;;;;17.60;8.83;;;1.60;99.90;;;;;;5003209;28;20507;-76
2023/03/06 00:52:31;;;;;;;12.63;7.40;;;1.50;99.90;;;;;;5001503;28;20459;-76
2023/03/06 00:54:58;;;;;;;15.90;9.57;;;1.50;99.90;;;;;;5003111;28;20451;-76
2023/03/06 00:57:25;;;;;;;12.60;7.50;;;1.60;99.90;;;;;;4993767;28;20503;-76
2023/03/06 00:59:52;;;;;;;10.43;7.60;;;1.50;99.90;;;;;;5010992;28;20952;-76
2023/03/06 01:02:21;;;;;;;11.97;7.50;;;1.50;99.90;;;;;;5043934;28;20452;-76
2023/03/06 01:04:48;;;;;;;13.50;8.07;;;1.50;99.90;;;;;;4999465;28;20514;-77
2023/03/06 01:07:15;;;;;;;12.50;8.43;;;1.50;99.90;;;;;;4998588;28;20476;-77
2023/03/06 01:09:42;;;;;;;14.30;8.50;;;1.50;99.90;;;;;;4997056;28;20888;-76
2023/03/06 01:12:09;;;;;;;16.00;9.03;;;1.50;99.90;;;;;;5053422;28;20980;-76
2023/03/06 01:14:36;;;;;;;13.50;7.90;;;1.50;99.90;;;;;;4998769;28;20498;-76
2023/03/06 01:17:03;;;;;;;16.27;7.70;;;1.50;99.90;;;;;;5002726;28;20447;-76
2023/03/06 01:19:31;;;;;;;14.73;7.47;;;1.50;99.90;;;;;;4993006;28;20532;-76
2023/03/06 01:21:59;;;;;;;14.00;7.53;;;1.50;99.90;;;;;;5007400;28;20519;-76
2023/03/06 01:24:27;;;;;;;10.30;7.20;;;1.40;99.90;;;;;;4988265;28;20468;-76
2023/03/06 01:26:54;;;;;;;15.50;8.00;;;1.50;99.90;;;;;;4996717;28;20483;-76
2023/03/06 01:29:21;;;;;;;13.83;8.27;;;1.40;99.90;;;;;;5000521;28;20467;-77
2023/03/06 01:31:48;;;;;;;12.67;7.60;;;1.40;99.90;;;;;;5009871;28;20824;-76
2023/03/06 01:34:15;;;;;;;15.77;9.70;;;1.40;99.90;;;;;;4999559;28;20547;-75
2023/03/06 01:36:43;;;;;;;18.67;7.57;;;1.40;99.90;;;;;;5001667;28;20447;-76
2023/03/06 01:39:10;;;;;;;13.13;8.03;;;1.40;99.90;;;;;;5005805;28;20451;-76
2023/03/06 01:41:37;;;;;;;13.90;7.10;;;1.40;99.90;;;;;;4997939;28;21156;-76
2023/03/06 01:44:04;;;;;;;11.40;6.57;;;1.40;99.90;;;;;;5035165;28;20988;-76
2023/03/06 01:46:40;;;;;;;14.00;8.10;;;1.40;99.90;;;;;;5016778;28;20518;-76
2023/03/06 01:49:12;;;;;;;15.57;8.13;;;1.40;99.90;;;;;;5002516;28;20525;-76
2023/03/06 01:51:42;;;;;;;12.33;6.90;;;1.50;99.90;;;;;;4992012;28;20511;-76
2023/03/06 01:54:15;;;;;;;13.53;6.53;;;1.50;99.90;;;;;;5024507;28;20463;-76
2023/03/06 01:56:44;;;;;;;11.80;6.53;;;1.50;99.90;;;;;;5010738;28;20459;-76
2023/03/06 01:59:12;;;;;;;13.60;7.00;;;1.50;99.90;;;;;;5018888;28;20455;-76
2023/03/06 02:01:39;;;;;;;11.77;6.40;;;1.50;99.90;;;;;;5004638;28;20454;-76
2023/03/06 02:04:07;;;;;;;9.47;6.53;;;1.50;99.90;;;;;;5023665;28;20550;-76
2023/03/06 02:06:37;;;;;;;10.80;7.03;;;1.50;99.90;;;;;;5020778;28;20497;-76
2023/03/06 02:09:05;;;;;;;11.40;6.70;;;1.50;99.90;;;;;;5005487;28;20454;-76
2023/03/06 02:11:33;;;;;;;11.13;6.00;;;1.50;99.90;;;;;;5002123;28;20520;-76
2023/03/06 02:14:01;;;;;;;12.40;6.73;;;1.40;99.90;;;;;;5006931;28;21141;-76
2023/03/06 02:16:30;;;;;;;8.63;5.97;;;1.40;99.90;;;;;;5025703;28;20955;-76
2023/03/06 02:19:00;;;;;;;12.97;7.73;;;1.40;99.90;;;;;;5004609;28;20481;-76
2023/03/06 02:21:31;;;;;;;12.77;7.37;;;1.40;99.90;;;;;;5002921;28;20508;-76
2023/03/06 02:24:19;;;;;;;14.63;8.37;;;1.40;99.90;;;;;;4997899;28;20515;-76
2023/03/06 02:26:48;;;;;;;16.53;10.17;;;1.40;99.90;;;;;;5004789;28;20494;-76
2023/03/06 02:29:18;;;;;;;12.87;7.70;;;1.40;99.90;;;;;;5019095;28;20458;-76
2023/03/06 02:31:45;;;;;;;13.07;8.43;;;1.40;99.90;;;;;;5005335;28;20471;-76
2023/03/06 02:34:53;;;;;;;15.13;7.10;;;1.40;99.90;;;;;;5052828;28;20944;-76
2023/03/06 02:37:22;;;;;;;13.20;7.30;;;1.40;99.90;;;;;;4964646;28;20618;-76
2023/03/06 02:39:57;;;;;;;16.03;7.17;;;1.40;99.90;;;;;;5004797;28;21132;-76
2023/03/06 02:42:27;;;;;;;17.57;7.50;;;1.40;99.90;;;;;;4993655;28;20466;-76
2023/03/06 02:44:56;;;;;;;15.30;8.47;;;1.40;99.90;;;;;;5026350;28;20455;-76
2023/03/06 02:47:23;;;;;;;15.73;9.17;;;1.40;99.90;;;;;;5011797;28;20500;-76
2023/03/06 02:49:50;;;;;;;16.97;9.70;;;1.30;99.90;;;;;;5004733;28;20528;-76
2023/03/06 02:52:17;;;;;;;16.47;8.80;;;1.30;99.90;;;;;;4995864;28;20524;-76
2023/03/06 02:54:44;;;;;;;11.20;6.60;;;1.40;99.90;;;;;;5010228;28;20515;-76
2023/03/06 02:57:11;;;;;;;18.23;8.40;;;1.30;99.90;;;;;;5004279;28;20475;-76
2023/03/06 02:59:39;;;;;;;12.60;7.57;;;1.30;99.90;;;;;;5030923;28;20499;-76
2023/03/06 03:02:06;;;;;;;13.60;7.87;;;1.30;99.90;;;;;;5003822;28;20508;-76
2023/03/06 03:04:33;;;;;;;14.00;8.50;;;1.30;99.90;;;;;;5003426;28;20494;-76
2023/03/06 03:07:00;;;;;;;12.40;8.30;;;1.30;99.90;;;;;;5008172;28;20526;-76
2023/03/06 03:09:28;;;;;;;13.03;8.20;;;1.20;99.90;;;;;;5001790;28;20512;-76
2023/03/06 03:11:55;;;;;;;14.53;8.53;;;1.20;99.90;;;;;;4997688;28;20547;-76
2023/03/06 03:14:23;;;;;;;17.27;9.30;;;1.20;99.90;;;;;;5004980;28;20487;-76
2023/03/06 03:16:53;;;;;;;11.33;7.77;;;1.10;99.90;;;;;;5000276;28;20524;-76
2023/03/06 03:19:21;;;;;;;16.03;8.73;;;1.10;99.90;;;;;;5003977;28;20524;-76
2023/03/06 03:21:48;;;;;;;12.53;8.50;;;1.20;99.90;;;;;;5055240;28;20791;-76
2023/03/06 03:24:15;;;;;;;13.93;7.73;;;1.20;99.90;;;;;;4998765;28;20572;-76
2023/03/06 03:26:42;;;;;;;13.10;9.00;;;1.20;99.90;;;;;;5037727;28;20525;-76
2023/03/06 03:29:09;;;;;;;17.77;8.20;;;1.10;99.90;;;;;;5000920;28;20467;-76
2023/03/06 03:31:36;;;;;;;14.57;9.10;;;1.20;99.90;;;;;;5003086;28;20479;-76
2023/03/06 03:34:05;;;;;;;13.97;7.50;;;1.10;99.90;;;;;;5003372;28;20535;-76
2023/03/06 03:36:32;;;;;;;19.20;8.93;;;1.10;99.90;;;;;;5025062;28;20540;-76
2023/03/06 03:38:59;;;;;;;11.73;8.27;;;1.10;99.90;;;;;;5001879;28;20947;-76
2023/03/06 03:41:26;;;;;;;23.03;9.67;;;1.10;99.90;;;;;;5002013;28;20458;-76
2023/03/06 03:43:53;;;;;;;12.70;7.83;;;1.10;99.90;;;;;;5016808;28;20926;-76
2023/03/06 03:46:20;;;;;;;11.40;7.97;;;1.20;99.90;;;;;;5030885;28;20498;-76
2023/03/06 03:48:47;;;;;;;14.40;7.60;;;1.20;99.90;;;;;;5016778;28;20773;-76
2023/03/06 03:51:16;;;;;;;14.27;9.33;;;1.30;99.90;;;;;;5042007;28;20457;-76
2023/03/06 03:53:44;;;;;;;15.60;8.67;;;1.20;99.90;;;;;;5024978;28;20463;-76
2023/03/06 03:56:12;;;;;;;24.37;9.10;;;1.20;99.90;;;;;;5001507;28;20462;-76
2023/03/06 03:58:39;;;;;;;15.07;7.87;;;1.10;99.90;;;;;;5001142;28;20828;-76
2023/03/06 04:01:06;;;;;;;17.67;10.60;;;1.10;99.90;;;;;;5011372;28;20459;-76
2023/03/06 04:03:33;;;;;;;16.13;8.07;;;1.10;99.90;;;;;;5005563;28;20463;-76
2023/03/06 04:06:00;;;;;;;12.30;8.40;;;1.10;99.90;;;;;;5003236;28;20487;-76
2023/03/06 04:08:28;;;;;;;13.37;7.27;;;1.10;99.90;;;;;;4999433;28;20512;-76
2023/03/06 04:10:55;;;;;;;16.27;8.17;;;1.10;99.90;;;;;;5024183;28;20515;-76
2023/03/06 04:13:24;;;;;;;14.73;8.20;;;1.10;99.90;;;;;;4994587;28;20471;-76
2023/03/06 04:15:52;;;;;;;10.90;7.53;;;1.20;99.90;;;;;;5006235;28;20478;-76
2023/03/06 04:18:20;;;;;;;13.20;8.20;;;1.20;99.90;;;;;;5001850;28;20545;-76
2023/03/06 04:20:48;;;;;;;14.83;9.03;;;1.10;99.90;;;;;;5003210;28;20457;-76
2023/03/06 04:23:15;;;;;;;14.60;8.17;;;1.00;99.90;;;;;;5004968;28;20455;-76
2023/03/06 04:25:44;;;;;;;19.10;10.37;;;1.00;99.90;;;;;;5000427;28;20978;-76
2023/03/06 04:28:12;;;;;;;15.40;9.07;;;1.00;99.90;;;;;;5004872;28;21027;-76
2023/03/06 04:30:38;;;;;;;12.73;8.27;;;1.10;99.90;;;;;;5027655;28;20487;-76
2023/03/06 04:33:05;;;;;;;13.97;7.83;;;1.10;99.90;;;;;;5003076;28;22119;-76
2023/03/06 04:35:32;;;;;;;13.77;6.83;;;1.00;99.90;;;;;;4998686;28;20971;-76
2023/03/06 04:37:59;;;;;;;14.13;8.60;;;1.00;99.90;;;;;;5001851;28;20451;-76
2023/03/06 04:40:28;;;;;;;11.20;8.00;;;1.00;99.90;;;;;;5016099;28;21060;-76
2023/03/06 04:42:57;;;;;;;15.93;8.80;;;1.00;99.90;;;;;;5031049;28;20464;-76
2023/03/06 04:45:24;;;;;;;12.23;6.23;;;1.00;99.90;;;;;;4993060;28;20459;-76
2023/03/06 04:47:51;;;;;;;16.30;8.90;;;1.00;99.90;;;;;;5020244;28;20487;-76
2023/03/06 04:50:19;;;;;;;13.37;8.30;;;1.00;99.90;;;;;;5000871;28;20515;-75
2023/03/06 04:52:46;;;;;;;14.57;8.60;;;0.90;99.90;;;;;;4990530;28;20915;-76
2023/03/06 04:55:15;;;;;;;18.30;9.43;;;0.90;99.90;;;;;;5000499;28;20962;-76
2023/03/06 04:57:45;;;;;;;19.50;8.20;;;0.90;99.90;;;;;;4996909;28;20897;-76
2023/03/06 05:00:16;;;;;;;15.93;8.40;;;0.90;99.90;;;;;;5007121;28;20476;-76
2023/03/06 05:02:44;;;;;;;13.97;8.57;;;0.90;99.90;;;;;;5017385;28;20483;-76
2023/03/06 05:05:12;;;;;;;12.50;8.13;;;0.90;99.90;;;;;;5001371;28;20466;-76
2023/03/06 05:07:39;;;;;;;13.03;7.23;;;0.90;99.90;;;;;;5008023;28;20543;-76
2023/03/06 05:10:08;;;;;;;13.53;7.80;;;0.80;99.90;;;;;;5001266;28;20532;-76
2023/03/06 05:12:37;;;;;;;12.90;7.43;;;0.80;99.90;;;;;;4999109;28;20540;-76
2023/03/06 05:15:04;;;;;;;16.03;9.50;;;0.80;99.90;;;;;;5020162;28;20495;-76
2023/03/06 05:17:33;;;;;;;16.63;8.43;;;0.80;99.90;;;;;;5010452;28;20560;-76
2023/03/06 05:20:00;;;;;;;15.20;7.27;;;0.80;99.90;;;;;;5002576;28;20543;-76
2023/03/06 05:22:27;;;;;;;18.20;8.97;;;0.80;99.90;;;;;;5046596;28;20455;-75
2023/03/06 05:24:54;;;;;;;17.43;10.97;;;0.80;99.90;;;;;;4992673;28;21182;-76
2023/03/06 05:27:21;;;;;;;16.00;9.23;;;0.90;99.90;;;;;;5021210;28;20571;-76
2023/03/06 05:29:48;;;;;;;13.17;7.80;;;0.90;99.90;;;;;;5001489;28;20459;-76
2023/03/06 05:32:16;;;;;;;13.07;9.43;;;0.90;99.90;;;;;;5000799;28;20950;-76
2023/03/06 05:34:44;;;;;;;16.40;8.40;;;0.90;99.90;;;;;;4998346;28;20980;-76
2023/03/06 05:37:11;;;;;;;17.80;9.37;;;0.90;99.90;;;;;;5017624;28;20443;-76
2023/03/06 05:39:38;;;;;;;15.67;8.20;;;0.90;99.90;;;;;;4996063;28;20531;-76
2023/03/06 05:42:05;;;;;;;16.30;9.80;;;0.80;99.90;;;;;;5042536;28;20934;-76
2023/03/06 05:44:33;;;;;;;18.10;8.27;;;0.80;99.90;;;;;;4993290;28;20498;-76
2023/03/06 05:47:00;;;;;;;15.90;8.30;;;0.70;99.90;;;;;;4995229;28;20482;-76
2023/03/06 05:49:31;;;;;;;19.50;9.53;;;0.70;99.90;;;;;;5002115;28;20805;-76
2023/03/06 05:52:00;;;;;;;11.37;7.40;;;0.70;99.90;;;;;;5000963;28;20470;-76
2023/03/06 05:54:26;;;;;;;14.33;8.60;;;0.70;99.90;;;;;;5007919;28;20938;-76
2023/03/06 05:56:56;;;;;;;14.70;7.30;;;0.90;99.90;;;;;;5010539;28;20467;-76
2023/03/06 05:59:26;;;;;;;16.83;9.37;;;0.90;99.90;;;;;;5001873;28;20459;-76
2023/03/06 06:01:53;;;;;;;16.37;8.90;;;0.80;99.90;;;;;;4999062;28;20475;-76
2023/03/06 06:04:21;;;;;;;18.87;8.77;;;0.80;99.90;;;;;;4998518;28;20475;-76
2023/03/06 06:06:52;;;;;;;13.60;8.43;;;0.80;99.90;;;;;;4993075;28;20916;-77
2023/03/06 06:09:21;;;;;;;15.27;8.60;;;0.80;99.90;;;;;;4996352;28;20463;-76
2023/03/06 06:11:52;;;;;;;14.40;8.57;;;0.80;99.90;;;;;;4984960;28;20468;-77
2023/03/06 06:14:19;;;;;;;18.00;9.53;;;0.80;99.90;;;;;;4990244;28;20527;-76
2023/03/06 06:16:46;;;;;;;13.63;8.83;;;0.90;99.90;;;;;;5016386;28;20483;-77
2023/03/06 06:19:17;;;;;;;13.40;8.73;;;1.00;99.90;;;;;;4999235;28;20478;-76
2023/03/06 06:21:45;;;;;;;15.40;8.43;;;1.10;99.90;;;;;;5002995;28;20463;-76
2023/03/06 06:24:12;;;;;;;15.53;8.20;;;1.10;99.90;;;;;;4994530;28;20837;-76
2023/03/06 06:26:41;;;;;;;11.63;8.23;;;1.10;99.90;;;;;;4990133;28;20843;-76
2023/03/06 06:29:09;;;;;;;19.90;9.53;;;1.20;99.90;;;;;;4993267;28;20676;-76
2023/03/06 06:31:36;;;;;;;18.97;9.40;;;1.20;99.90;;;;;;5003124;28;20447;-76
2023/03/06 06:34:04;;;;;;;15.90;9.43;;;1.30;99.90;;;;;;4994999;28;20549;-76
2023/03/06 06:36:31;;;;;;;13.63;7.60;;;1.30;99.90;;;;;;4996106;28;21294;-76
2023/03/06 06:38:58;;;;;;;23.00;10.87;;;1.50;99.90;;;;;;5032211;28;20487;-77
2023/03/06 06:41:25;;;;;;;15.20;8.93;;;1.40;99.90;;;;;;5003753;28;20789;-77
2023/03/06 06:43:54;;;;;;;23.10;9.83;;;1.50;99.90;;;;;;5005455;28;20495;-77
2023/03/06 06:46:21;;;;;;;15.03;8.90;;;1.60;99.90;;;;;;5010641;28;21015;-77
2023/03/06 06:48:49;;;;;;;17.27;8.23;;;1.60;99.90;;;;;;5027423;28;20522;-76
2023/03/06 06:51:16;;;;;;;13.20;6.93;;;1.70;99.90;;;;;;5005401;28;20945;-76
2023/03/06 06:53:43;;;;;;;16.70;7.60;;;1.70;99.90;;;;;;5000457;28;20524;-76
2023/03/06 06:56:10;;;;;;;13.13;8.07;;;1.90;99.90;;;;;;4996477;28;20679;-76
2023/03/06 06:58:37;;;;;;;18.57;9.10;;;2.00;99.90;;;;;;5032192;28;20844;-76
2023/03/06 07:01:11;;;;;;;15.10;9.47;;;2.00;99.90;;;;;;5005053;28;20489;-76
2023/03/06 07:03:39;;;;;;;12.03;7.97;;;2.00;99.90;;;;;;4989925;28;20472;-76
2023/03/06 07:06:07;;;;;;;12.43;8.30;;;2.20;99.90;;;;;;5005437;28;20962;-77
2023/03/06 07:08:34;;;;;;;13.37;8.10;;;2.20;99.90;;;;;;4998124;28;20499;-77
2023/03/06 07:11:07;;;;;;;18.53;10.63;;;2.10;99.90;;;;;;4986651;28;20456;-77
2023/03/06 07:13:34;;;;;;;19.13;11.07;;;2.00;99.90;;;;;;4998016;28;21074;-78
2023/03/06 07:16:01;;;;;;;22.70;13.43;;;2.00;99.90;;;;;;5003789;28;20552;-77
2023/03/06 07:18:29;;;;;;;20.03;11.20;;;2.10;99.90;;;;;;5028874;28;20816;-78
2023/03/06 07:20:57;;;;;;;16.20;8.83;;;2.30;99.90;;;;;;5010079;28;20456;-78
2023/03/06 07:23:25;;;;;;;38.77;26.33;;;2.40;99.90;;;;;;4996210;28;20462;-78
2023/03/06 07:25:52;;;;;;;19.60;13.53;;;2.60;99.90;;;;;;4988517;28;20469;-78
2023/03/06 07:28:19;;;;;;;69.13;42.20;;;2.50;99.90;;;;;;5014786;28;21066;-78
2023/03/06 07:30:46;;;;;;;26.60;18.40;;;2.70;99.90;;;;;;5028541;28;20492;-78
2023/03/06 07:33:14;;;;;;;17.07;9.53;;;2.80;99.90;;;;;;5007187;28;20531;-78
2023/03/06 07:35:43;;;;;;;16.90;8.97;;;2.90;99.90;;;;;;5001087;28;20544;-77
2023/03/06 07:38:11;;;;;;;18.80;9.87;;;3.00;99.90;;;;;;5003527;28;20508;-77
2023/03/06 07:40:38;;;;;;;14.73;9.20;;;3.00;99.90;;;;;;5000709;28;20487;-77
2023/03/06 07:43:05;;;;;;;14.30;9.20;;;3.00;99.90;;;;;;5007452;28;21010;-78
2023/03/06 07:45:33;;;;;;;13.43;8.30;;;3.10;99.90;;;;;;4996378;28;20611;-77
2023/03/06 07:48:00;;;;;;;13.50;8.50;;;3.10;99.90;;;;;;5065375;28;20514;-78
2023/03/06 07:50:27;;;;;;;12.60;6.93;;;3.10;99.90;;;;;;4997085;28;20684;-78
2023/03/06 07:52:55;;;;;;;16.07;7.33;;;3.20;99.90;;;;;;4990600;28;20527;-78
2023/03/06 07:55:22;;;;;;;14.57;6.70;;;3.30;99.90;;;;;;5002539;28;20874;-78
2023/03/06 07:57:50;;;;;;;14.27;7.80;;;3.30;99.90;;;;;;4999235;28;20623;-78
2023/03/06 08:00:18;;;;;;;16.60;8.17;;;3.30;99.90;;;;;;4999390;28;20528;-78
2023/03/06 08:02:45;;;;;;;17.40;8.83;;;3.30;99.90;;;;;;4997486;28;20495;-78
2023/03/06 08:05:14;;;;;;;11.80;6.50;;;3.40;99.90;;;;;;5003230;28;20455;-77
2023/03/06 08:07:42;;;;;;;18.13;8.27;;;3.40;99.90;;;;;;5002470;28;21026;-78
2023/03/06 08:10:13;;;;;;;11.27;7.93;;;3.60;99.90;;;;;;5003717;28;20487;-78
2023/03/06 08:12:40;;;;;;;11.67;7.70;;;3.70;99.90;;;;;;5003302;28;20456;-77
2023/03/06 08:15:10;;;;;;;16.10;8.50;;;3.70;99.90;;;;;;4994961;28;20536;-78
2023/03/06 08:17:37;;;;;;;12.97;8.57;;;3.60;99.90;;;;;;5001987;28;20575;-78
2023/03/06 08:20:05;;;;;;;10.80;7.30;;;3.50;99.90;;;;;;5000046;28;20499;-78
2023/03/06 08:22:33;;;;;;;10.70;7.53;;;3.70;99.90;;;;;;4998262;28;20474;-77
2023/03/06 08:25:00;;;;;;;14.10;8.00;;;3.70;99.90;;;;;;4992488;28;20498;-77
2023/03/06 08:27:30;;;;;;;12.80;7.37;;;3.60;99.90;;;;;;5010833;28;20526;-78
2023/03/06 08:29:57;;;;;;;12.17;7.87;;;3.70;99.90;;;;;;5002528;28;20457;-78
2023/03/06 08:32:25;;;;;;;10.93;7.07;;;3.70;99.90;;;;;;5012115;28;20446;-78
2023/03/06 08:34:52;;;;;;;11.50;7.07;;;3.80;99.90;;;;;;4997681;28;20475;-78
2023/03/06 08:37:19;;;;;;;16.13;8.47;;;3.80;99.90;;;;;;5040219;28;20840;-78
2023/03/06 08:39:45;;;;;;;15.17;8.60;;;3.90;99.90;;;;;;5006305;28;20520;-78
2023/03/06 08:42:13;;;;;;;12.83;8.97;;;4.00;99.90;;;;;;5002789;28;20483;-78
2023/03/06 08:44:41;;;;;;;13.47;7.67;;;4.10;99.90;;;;;;5000818;28;20451;-78
2023/03/06 08:47:08;;;;;;;15.97;9.20;;;3.90;99.90;;;;;;5023087;28;20467;-78
2023/03/06 08:49:38;;;;;;;10.27;7.20;;;4.10;99.90;;;;;;5039180;28;20462;-78
2023/03/06 08:52:06;;;;;;;12.30;7.93;;;3.90;99.90;;;;;;4992978;28;20470;-79
2023/03/06 08:54:34;;;;;;;11.83;7.40;;;4.30;99.90;;;;;;5057820;28;20512;-79
2023/03/06 08:57:02;;;;;;;11.57;7.97;;;4.40;99.90;;;;;;5027701;28;20468;-78
2023/03/06 08:59:29;;;;;;;11.80;6.90;;;4.60;99.90;;;;;;4999738;28;20460;-79
2023/03/06 09:01:57;;;;;;;15.73;7.93;;;4.70;99.90;;;;;;4996899;28;21008;-79
2023/03/06 09:04:24;;;;;;;14.20;8.40;;;5.00;99.90;;;;;;5002049;28;20519;-78
2023/03/06 09:06:51;;;;;;;14.87;10.63;;;5.10;99.90;;;;;;5008833;28;20557;-80
2023/03/06 09:09:18;;;;;;;12.50;8.90;;;5.40;99.90;;;;;;4997292;28;20658;-81
2023/03/06 09:11:45;;;;;;;18.57;8.60;;;5.40;99.90;;;;;;4993985;28;20474;-81
2023/03/06 09:14:12;;;;;;;13.57;8.50;;;5.10;99.90;;;;;;5001800;28;20475;-81
2023/03/06 09:16:39;;;;;;;12.90;7.57;;;5.00;99.90;;;;;;5031386;28;20458;-78
2023/03/06 09:19:07;;;;;;;13.40;7.60;;;5.20;99.90;;;;;;5004039;28;20443;-79
2023/03/06 09:21:34;;;;;;;14.80;8.10;;;5.30;99.90;;;;;;4999541;28;20887;-79
2023/03/06 09:24:01;;;;;;;11.50;7.63;;;5.50;99.90;;;;;;5000382;28;20778;-79
2023/03/06 09:26:28;;;;;;;11.40;7.07;;;5.70;99.90;;;;;;4991509;28;20455;-79
2023/03/06 09:28:55;;;;;;;10.70;8.50;;;5.80;99.90;;;;;;5063746;28;20522;-80
2023/03/06 09:31:22;;;;;;;9.00;6.90;;;5.90;99.90;;;;;;5002588;28;20977;-79
2023/03/06 09:33:49;;;;;;;11.70;6.53;;;6.00;99.90;;;;;;5001705;28;21562;-79
2023/03/06 09:36:20;;;;;;;12.13;7.33;;;6.00;99.90;;;;;;5027024;28;20450;-79
2023/03/06 09:38:48;;;;;;;14.73;9.23;;;6.10;99.90;;;;;;5029979;28;20926;-80
2023/03/06 09:41:31;;;;;;;11.03;7.27;;;6.20;99.40;;;;;;5011936;28;20836;-79
2023/03/06 09:44:04;;;;;;;8.27;5.73;;;6.20;99.10;;;;;;5055847;28;20507;-79
2023/03/06 09:46:46;;;;;;;10.47;6.57;;;6.10;97.00;;;;;;4999809;28;20507;-79
2023/03/06 09:49:38;;;;;;;8.87;5.77;;;6.10;98.80;;;;;;5014681;28;20482;-79
2023/03/06 09:52:19;;;;;;;14.13;6.37;;;6.10;97.30;;;;;;5030284;28;20544;-79
2023/03/06 09:54:51;;;;;;;10.40;5.90;;;6.50;97.30;;;;;;4994110;28;20993;-79
2023/03/06 09:57:22;;;;;;;12.17;8.60;;;6.50;94.70;;;;;;5009484;28;20462;-79
2023/03/06 09:59:53;;;;;;;14.10;6.83;;;6.60;96.30;;;;;;4994282;28;20520;-79
2023/03/06 10:02:26;;;;;;;10.90;6.83;;;6.50;95.90;;;;;;4999968;28;20761;-80
2023/03/06 10:04:59;;;;;;;11.20;6.00;;;6.50;94.90;;;;;;4998460;28;20463;-79
2023/03/06 10:07:36;;;;;;;12.60;6.67;;;6.40;95.00;;;;;;5051974;28;20545;-79
2023/03/06 10:10:06;;;;;;;14.80;6.27;;;6.40;95.10;;;;;;5021711;28;20463;-79
2023/03/06 10:12:36;;;;;;;9.20;5.80;;;6.30;95.70;;;;;;5005388;28;20503;-79
2023/03/06 10:15:14;;;;;;;11.03;6.43;;;6.60;95.20;;;;;;4997931;28;20556;-80
2023/03/06 10:17:43;;;;;;;12.33;7.93;;;6.50;95.00;;;;;;5004373;28;20535;-79
2023/03/06 10:20:17;;;;;;;9.30;6.47;;;6.50;95.30;;;;;;5000773;28;20587;-79
2023/03/06 10:22:53;;;;;;;11.40;6.63;;;6.50;94.60;;;;;;5000960;28;20505;-79
2023/03/06 10:25:26;;;;;;;8.70;5.57;;;6.60;93.50;;;;;;4997801;28;20533;-79
2023/03/06 10:28:00;;;;;;;10.73;7.00;;;6.30;94.00;;;;;;5032016;28;20532;-79
2023/03/06 10:30:38;;;;;;;9.73;6.23;;;6.50;94.40;;;;;;5002863;28;20464;-79
2023/03/06 10:33:15;;;;;;;8.57;5.83;;;6.60;94.90;;;;;;5013751;28;20446;-82
2023/03/06 10:35:47;;;;;;;9.07;6.10;;;6.50;94.50;;;;;;5002628;28;21078;-80
2023/03/06 10:38:20;;;;;;;11.57;6.73;;;6.40;94.90;;;;;;4992247;28;20508;-80
2023/03/06 10:41:00;;;;;;;11.90;7.83;;;6.40;94.80;;;;;;4998179;28;20519;-79
2023/03/06 10:43:27;;;;;;;10.80;6.77;;;6.50;95.80;;;;;;5003876;28;20939;-79
2023/03/06 10:45:54;;;;;;;10.60;6.37;;;6.80;94.00;;;;;;5019253;28;20478;-80
2023/03/06 10:48:23;;;;;;;13.40;6.30;;;6.80;93.90;;;;;;5057817;28;21046;-80
2023/03/06 10:50:51;;;;;;;9.43;6.40;;;6.80;93.50;;;;;;5046923;28;20523;-80
2023/03/06 10:53:27;;;;;;;9.03;5.23;;;6.80;93.80;;;;;;5001944;28;20529;-79
2023/03/06 10:55:57;;;;;;;11.53;6.43;;;6.80;93.70;;;;;;5003432;28;20451;-79
2023/03/06 10:58:26;;;;;;;13.20;6.33;;;6.80;93.40;;;;;;5030040;28;20539;-79
2023/03/06 11:01:16;;;;;;;11.83;8.60;;;7.20;93.00;;;;;;4996834;28;20512;-79
2023/03/06 11:03:44;;;;;;;14.90;7.57;;;7.40;92.90;;;;;;4997569;28;20498;-79
2023/03/06 11:06:12;;;;;;;10.47;7.17;;;7.80;93.40;;;;;;5005370;28;20451;-79
2023/03/06 11:08:42;;;;;;;12.30;6.90;;;7.80;92.90;;;;;;5061971;28;20555;-78
2023/03/06 11:11:12;;;;;;;15.70;7.43;;;8.00;92.50;;;;;;5046819;28;20919;-79
2023/03/06 11:13:41;;;;;;;10.17;6.97;;;8.10;92.40;;;;;;4993504;28;20475;-79
2023/03/06 11:16:18;;;;;;;11.87;6.97;;;8.20;92.40;;;;;;5004405;28;20475;-79
2023/03/06 11:18:57;;;;;;;8.43;6.03;;;8.40;89.30;;;;;;5001911;28;20503;-79
2023/03/06 11:21:27;;;;;;;10.10;6.97;;;8.20;90.70;;;;;;4995467;28;20454;-79
2023/03/06 11:24:00;;;;;;;12.17;7.53;;;8.30;88.00;;;;;;5000530;28;21024;-79
2023/03/06 11:26:38;;;;;;;11.13;7.17;;;8.20;89.30;;;;;;5004668;28;20515;-79
2023/03/06 11:29:34;;;;;;;13.33;8.13;;;8.30;90.60;;;;;;5019332;28;20494;-79
2023/03/06 11:32:09;;;;;;;10.60;7.10;;;8.30;90.50;;;;;;5011346;28;20595;-79
2023/03/06 11:34:41;;;;;;;9.63;7.07;;;8.20;89.70;;;;;;5003727;28;20527;-79
2023/03/06 11:37:15;;;;;;;15.30;7.77;;;8.10;90.10;;;;;;5006056;28;20463;-79
2023/03/06 11:39:48;;;;;;;12.17;6.70;;;8.20;90.20;;;;;;5009146;28;20551;-79
2023/03/06 11:42:20;;;;;;;11.17;7.37;;;8.20;92.00;;;;;;5001486;28;20473;-79
2023/03/06 11:44:54;;;;;;;12.33;6.80;;;8.20;91.30;;;;;;5000352;28;20443;-79
2023/03/06 11:47:25;;;;;;;13.20;7.50;;;8.10;89.50;;;;;;5023688;28;20443;-79
2023/03/06 11:50:01;;;;;;;11.23;7.80;;;8.20;91.50;;;;;;5058442;28;20478;-79
2023/03/06 11:52:40;;;;;;;10.57;8.10;;;8.00;91.50;;;;;;5004129;28;20603;-81
2023/03/06 11:55:15;;;;;;;15.00;8.27;;;7.90;90.10;;;;;;5075691;28;20500;-81
2023/03/06 11:57:49;;;;;;;11.70;6.77;;;7.70;91.00;;;;;;4999957;28;20452;-78
2023/03/06 12:00:28;;;;;;;18.13;7.80;;;7.30;91.00;;;;;;5039290;28;20922;-79
2023/03/06 12:03:12;;;;;;;9.40;6.70;;;7.20;92.60;;;;;;5000215;28;20520;-78
2023/03/06 12:05:44;;;;;;;12.50;8.07;;;7.20;93.30;;;;;;5002796;28;20512;-79
2023/03/06 12:08:28;;;;;;;11.67;7.20;;;7.30;93.60;;;;;;5029496;28;20451;-79
2023/03/06 12:11:03;;;;;;;9.97;6.97;;;7.10;92.40;;;;;;5008955;28;20448;-80
2023/03/06 12:13:46;;;;;;;14.87;8.90;;;7.00;92.60;;;;;;4994988;28;20499;-80
2023/03/06 12:16:34;;;;;;;12.73;6.73;;;6.70;93.40;;;;;;4988672;28;20466;-80
2023/03/06 12:19:15;;;;;;;12.53;6.90;;;6.60;94.50;;;;;;4997171;28;20548;-79
2023/03/06 12:21:55;;;;;;;11.07;7.40;;;6.80;95.30;;;;;;4994350;28;20454;-80
2023/03/06 12:24:38;;;;;;;13.07;8.07;;;6.90;95.10;;;;;;5018031;28;21003;-80
2023/03/06 12:27:15;;;;;;;10.43;7.70;;;6.90;94.30;;;;;;5028583;28;20462;-80
2023/03/06 12:29:59;;;;;;;11.13;6.70;;;7.10;95.50;;;;;;5030037;28;20485;-80
2023/03/06 12:32:39;;;;;;;13.30;7.10;;;7.20;93.30;;;;;;5002731;28;20471;-81
2023/03/06 12:35:37;;;;;;;11.63;7.93;;;7.30;93.10;;;;;;5001032;28;21003;-80
2023/03/06 12:38:19;;;;;;;12.33;6.80;;;7.30;93.20;;;;;;4998937;28;20475;-81
2023/03/06 12:41:01;;;;;;;10.37;6.33;;;7.40;93.80;;;;;;4998088;28;20443;-81
2023/03/06 12:44:13;;;;;;;13.43;6.97;;;7.50;93.60;;;;;;4992228;28;20544;-81
2023/03/06 12:46:46;;;;;;;13.20;7.30;;;7.70;93.20;;;;;;5064268;27;20898;-81
2023/03/06 12:49:22;;;;;;;10.40;6.60;;;7.40;94.30;;;;;;5003083;28;20938;-81
2023/03/06 12:51:49;;;;;;;11.67;6.90;;;7.20;93.80;;;;;;5005545;28;20710;-81
2023/03/06 12:54:19;;;;;;;10.60;7.00;;;7.40;95.70;;;;;;5016670;28;20455;-81
2023/03/06 12:56:47;;;;;;;10.77;8.30;;;7.20;94.00;;;;;;4997908;28;20467;-82
2023/03/06 12:59:42;;;;;;;14.00;8.90;;;7.30;95.10;;;;;;5050061;28;20466;-79
2023/03/06 13:02:39;;;;;;;13.07;7.40;;;7.50;94.70;;;;;;5009361;28;20548;-80